UATG/GUW METAR and TAF weather

Enter ICAO airport designator
Station Type Date Time Source
UATG METAR 2022/01/25 04:00 UTC NOAA

UATG 250400Z 12010MPS CAVOK M09/M11 Q1024 NOSIG RMK QFE770/1027


Station Type Date Time Source
UATG Decoded METAR 2022/01/25 04:00 UTC NOAA

Station name not available
Jan 24, 2022 - 11:00 PM EST / 2022.01.25 0400 UTC
Wind: from the ESE (120 degrees) at 22 MPH (19 KT):0
Visibility: greater than 7 mile(s):0
Temperature: 15 F (-9 C)
Windchill: -2 F (-19 C):1
Dew Point: 12 F (-11 C)
Relative Humidity: 85%
Pressure (altimeter): 30.24 in. Hg (1024 hPa)
ob: UATG 250400Z 12010MPS CAVOK M09/M11 Q1024 NOSIG RMK QFE770/1027
cycle: 4

Station Type Date Time Source
UATG TAF 2022/01/24 18:21 UTC NOAA

TAF UATG 241701Z 2418/2518 10007G12MPS 3100 BR SCT033 TXM02/2511Z TNM11/2503Z
BECMG 2506/2508 9999 NSW BKN030
BECMG 2511/2513 10007MPS

Example: see airport list